Chemtrans Sea — A8EL8 — position and weather

sailwx.info

Track history (hours):
 
Tides and Currents Weather Stations Pressure Air Temp Water Temp Dewpoint Dewpoint Depression Visibility Wind Speed Wind Dir Waves Ship Positions

Chemtrans Sea

Last reported at 2018-Feb-20 11:55 UTC. Time now 2018-Feb-22 13:04 UTC.
Position N 36°01' W 005°12'.

Length 228 m; draft 8.2 m.

Type: Tanker. MMSI: 636090747.

Date/timePositionNaut miles runAvg speedWind from/ knotsBaromVisibWave heightAir tempDewpointWater temp
2018-Feb-20 11:55N 36°01' W 005°12'614.2
2018-Feb-20 11:30N 36°03' W 005°19'4 3.0
2018-Feb-20 10:17N 36°04' W 005°24'1 4.6
2018-Feb-20 10:00N 36°05' W 005°22'  
2018-Feb-15 23:19N 36°09' W 005°24'0 0.0
2018-Feb-15 22:58N 36°09' W 005°24'0 0.2
2018-Feb-15 21:37N 36°09' W 005°25'0 0.0
2018-Feb-15 21:25N 36°09' W 005°25'0 0.1
2018-Feb-15 19:37N 36°09' W 005°25'0 0.1
2018-Feb-15 15:46N 36°09' W 005°24'1 2.6
2018-Feb-15 15:31N 36°09' W 005°24'4 7.3
2018-Feb-15 15:00N 36°05' W 005°23'2 3.1
2018-Feb-15 14:28N 36°04' W 005°22'2 5.4
2018-Feb-15 14:00N 36°01' W 005°23'612.1
2018-Feb-15 13:30N 35°58' W 005°29'  
Track history (hours):
 
Tides and Currents Weather Stations Pressure Air Temp Water Temp Dewpoint Dewpoint Depression Visibility Wind Speed Wind Dir Waves Ship Positions

Chemtrans Sea

Last reported at 2018-Feb-20 11:55 UTC. Time now 2018-Feb-22 13:04 UTC.
Position N 36°01' W 005°12'.

Length 228 m; draft 8.2 m.

Type: Tanker. MMSI: 636090747.

Date/timePositionNaut miles runAvg speedWind from/ knotsBaromVisibWave heightAir tempDewpointWater temp
2018-Feb-20 11:55N 36°01' W 005°12'614.2
2018-Feb-20 11:30N 36°03' W 005°19'4 3.0
2018-Feb-20 10:17N 36°04' W 005°24'1 4.6
2018-Feb-20 10:00N 36°05' W 005°22'  
2018-Feb-15 23:19N 36°09' W 005°24'0 0.0
2018-Feb-15 22:58N 36°09' W 005°24'0 0.2
2018-Feb-15 21:37N 36°09' W 005°25'0 0.0
2018-Feb-15 21:25N 36°09' W 005°25'0 0.1
2018-Feb-15 19:37N 36°09' W 005°25'0 0.1
2018-Feb-15 15:46N 36°09' W 005°24'1 2.6
2018-Feb-15 15:31N 36°09' W 005°24'4 7.3
2018-Feb-15 15:00N 36°05' W 005°23'2 3.1
2018-Feb-15 14:28N 36°04' W 005°22'2 5.4
2018-Feb-15 14:00N 36°01' W 005°23'612.1
2018-Feb-15 13:30N 35°58' W 005°29'  

Dump ship's entire track history